Home > Products > Valid Products > MTR

000
SAUS45 KLKN 310657 COR
MTRP68
METAR KP68 310653Z AUTO 23004KT 11/M06 A3007 RMK AO1 SLP119
T01111061





000
SAUS45 KLKN 310554
MTRP68
METAR KP68 310553Z AUTO 00000KT 12/M07 A3007 RMK AO1 SLP127
T01171072 10200 20094 56006





000
SAUS45 KLKN 310454
MTRP68
METAR KP68 310453Z AUTO 23003KT 12/M07 A3007 RMK AO1 SLP136
T01221072





000
SAUS45 KLKN 310355
MTRP68
METAR KP68 310353Z AUTO 15012KT 15/M08 A3007 RMK AO1 SLP137
T01501078





000
SAUS45 KLKN 310355
MTRP68
METAR KP68 310353Z AUTO 15012KT 15/M08 A3007 RMK AO1 SLP137
T01501078





000
SAUS45 KLKN 310255
MTRP68
METAR KP68 310253Z AUTO 16009KT 15/M08 A3009 RMK AO1 SLP152
T01501078 56003





000
SAUS45 KLKN 310155
MTRP68
METAR KP68 310153Z AUTO 15013KT 16/M08 A3009 RMK AO1 SLP156
T01561078





000
SAUS45 KLKN 310054
MTRP68
METAR KP68 310053Z AUTO 16011KT 17/M07 A3008 RMK AO1 SLP148
T01721072





000
SAUS45 KLKN 302355
MTRP68
METAR KP68 302353Z AUTO 17012KT 20/M07 A3010 RMK AO1 SLP147
T02001072 10222 20139 56014





000
SAUS45 KLKN 302255
MTRP68
METAR KP68 302253Z AUTO 16017G21KT 21/M08 A3010 RMK AO1 SLP149
T02111078





000
SAUS45 KLKN 302155
MTRP68
METAR KP68 302153Z AUTO 16015G22KT 22/M08 A3011 RMK AO1 SLP149
T02171083





000
SAUS45 KLKN 302155
MTRP68
METAR KP68 302153Z AUTO 16015G22KT 22/M08 A3011 RMK AO1 SLP149
T02171083





000
SAUS45 KLKN 302055
MTRP68
METAR KP68 302053Z AUTO 15017KT 22/M08 A3014 RMK AO1 SLP160
T02171083 58026





000
SAUS45 KLKN 301959 COR
MTRP68
METAR KP68 301953Z AUTO 18010G20KT 21/M09 A3019 RMK AO1 SLP176
T02061089





000
SAUS45 KLKN 301957 COR
MTRP68
METAR KP68 301953Z AUTO 18010G20KT 21/M09 A3019 RMK AO1 SLP17Jw[5f3f3f3f3f3f3ff3f3f33P~n=`gD^D"D"D"D"D"D"D"D"D"
REQ RNOMTRP68





000
SAUS45 KLKN 301855
MTRP68
METAR KP68 301853Z AUTO 16007KT 19/M07 A3021 RMK AO1 SLP188
T01891072





000
SAUS45 KLKN 301754
MTRP68
METAR KP68 301753Z AUTO 00000KT 14/M04 A3024 RMK AO1 SLP202 6////
T01391044 10139 21022 58005





000
SAUS45 KLKN 301654
MTRP68
METAR KP68 301653Z AUTO 04003KT 10/M05 A3025 RMK AO1 SLP215
T01001050





000
SAUS45 KLKN 301654
MTRP68
METAR KP68 301653Z AUTO 04003KT 10/M05 A3025 RMK AO1 SLP215
T01001050





000
SAUS45 KLKN 301554
MTRP68
METAR KP68 301553Z AUTO 00000KT 07/M07 A3025 RMK AO1 SLP218
T00671067





000
SAUS45 KLKN 301454
MTRP68
METAR KP68 301453Z AUTO 21006KT 02/M07 A3025 RMK AO1 SLP227 6////
T00171072 $





000
SAUS45 KLKN 301354
MTRP68
METAR KP68 301353Z AUTO 21008KT M01/M08 A3026 RMK AO1 SLP226
T10061083 $





000
SAUS45 KLKN 301255
MTRP68
METAR KP68 301253Z AUTO 21009KT 00/M08 A3025 RMK AO1 SLP214
T00001078





000
SAUS45 KLKN 301154
MTRP68
METAR KP68 301153Z AUTO 20007KT M02/M09 A3025 RMK AO1 SLP210
T10221089 10033 21022 58007





000
SAUS45 KLKN 301054
MTRP68
METAR KP68 301053Z AUTO 18005KT M01/M08 A3026 RMK AO1 SLP208
T10061083





000
SAUS45 KLKN 301054
MTRP68
METAR KP68 301053Z AUTO 18005KT M01/M08 A3026 RMK AO1 SLP208
T10061083





000
SAUS45 KLKN 300954
MTRP68
METAR KP68 300953Z AUTO 22007KT 02/M07 A3027 RMK AO1 SLP206
T00171072





000
SAUS45 KLKN 300855
MTRP68
METAR KP68 300853Z AUTO 21008KT 02/M07 A3027 RMK AO1 SLP210
T00221067 55001





000
SAUS45 KLKN 300754
MTRP68
METAR KP68 300753Z AUTO 18005KT 01/M07 A3027 RMK AO1 SLP214
T00111072 402061022





000
SAUS45 KLKN 300654
MTRP68
METAR KP68 300653Z AUTO 19006KT 02/M07 A3028 RMK AO1 SLP217
T00171067





000
SAUS45 KLKN 300554
MTRP68
METAR KP68 300553Z AUTO 20006KT 02/M07 A3028 RMK AO1 SLP220
T00221067 10189 20017 51004





000
SAUS45 KLKN 300454
MTRP68
METAR KP68 300453Z AUTO 18005KT 03/M06 A3028 RMK AO1 SLP223
T00331061





000
SAUS45 KLKN 300454
MTRP68
METAR KP68 300453Z AUTO 18005KT 03/M06 A3028 RMK AO1 SLP223
T00331061





000
SAUS45 KLKN 300355
MTRP68
METAR KP68 300353Z AUTO 17005KT 04/M06 A3027 RMK AO1 SLP230
T00441061





000
SAUS45 KLKN 300255
MTRP68
METAR KP68 300253Z AUTO 16004KT 07/M06 A3026 RMK AO1 SLP233
T00721061 53006





000
SAUS45 KLKN 300154
MTRP68
METAR KP68 300153Z AUTO 09/M07 A3025 RMK AO1 SLP226 T00891067





000
SAUS45 KLKN 300055
MTRP68
METAR KP68 300053Z AUTO 02003KT 14/M04 A3023 RMK AO1 SLP208
T01441044





000
SAUS45 KLKN 292354
MTRP68
METAR KP68 292353Z AUTO 00000KT 18/M05 A3024 RMK AO1 SLP200
T01831050 10206 20144 56011





000
SAUS45 KLKN 292254
MTRP68
METAR KP68 292253Z AUTO VRB06KT 20/M04 A3025 RMK AO1 SLP203
T02001044





000
SAUS45 KLKN 292154
MTRP68
METAR KP68 292153Z AUTO 02006KT 20/M04 A3026 RMK AO1 SLP205
T02001044





000
SAUS45 KLKN 292055
MTRP68
METAR KP68 292053Z AUTO 07005KT 18/M03 A3028 RMK AO1 SLP218
T01831028 58018





000
SAUS45 KLKN 291955
MTRP68
METAR KP68 291953Z AUTO 04003KT 18/M02 A3030 RMK AO1 SLP220
T01781022





000
SAUS45 KLKN 291855
MTRP68
METAR KP68 291853Z AUTO 00000KT 16/M03 A3033 RMK AO1 SLP238
T01611028





000
SAUS45 KLKN 291754
MTRP68
METAR KP68 291753Z AUTO 05004KT 14/M06 A3034 RMK AO1 SLP243
T01441061 10144 21011 52003





000
SAUS45 KLKN 291654
MTRP68
METAR KP68 291653Z AUTO 24007KT 11/M07 A3034 RMK AO1 SLP247
T01111072





000
SAUS45 KLKN 291554
MTRP68
METAR KP68 291553Z AUTO 22006KT 06/M08 A3034 RMK AO1 SLP257
T00561078





000
SAUS45 KLKN 291454
MTRP68
METAR KP68 291453Z AUTO 20008KT 01/M09 A3033 RMK AO1 SLP265
T00061094 51013





000
SAUS45 KLKN 291354
MTRP68
METAR KP68 291353Z AUTO 21008KT M01/M10 A3032 RMK AO1 SLP255
T10061100





000
SAUS45 KLKN 291254
MTRP68
METAR KP68 291253Z AUTO 22004KT M01/M09 A3031 RMK AO1 SLP244
T10061094





000
SAUS45 KLKN 291154
MTRP68
METAR KP68 291153Z AUTO 22009KT 01/M09 A3029 RMK AO1 SLP220
T00111094 10028 21022 58002





000
SAUS45 KLKN 291054
MTRP68
METAR KP68 291053Z AUTO 19006KT M01/M09 A3029 RMK AO1 SLP224
T10061089





000
SAUS45 KLKN 290957 COR
MTRP68
METAR KP68 290953Z AUTO 16005KT 00/M09 A3029 RMK AO1 SLP223
T00001094





000
SAUS45 KLKN 290956 COR
MTRP68
METAR KP68 290953Z AUTO 16005KT 00/M09 A3029 RMK AO1 SLP223
T00001094





000
SAUS45 KLKN 290955
MTRP68
METAR KP68 290953Z AUTO 16005KT 00/M09 A3029 RMK AO1 SLP223
T00001094





000
SAUS45 KLKN 290854
MTRP68
METAR KP68 290853Z AUTO 00000KT M01/M11 A3029 RMK AO1 SLP228
T10111106 53006





000
SAUS45 KLKN 290754
MTRP68
METAR KP68 290753Z AUTO 23006KT 02/M09 A3029 RMK AO1 SLP226
T00171089 401781056





000
SAUS45 KLKN 290654
MTRP68
METAR KP68 290653Z AUTO 18003KT 01/M09 A3027 RMK AO1 SLP225
T00061089





000
SAUS45 KLKN 290558 COR
MTRP68
METAR KP68 290553Z AUTO 18005KT 02/M09 A3027 RMK AO1 SLP230
T00171094 10167 20000 51007





000
SAUS45 KLKN 290557 COR
MTRP68
METAR KP68 290553Z AUTO 18005KT 02/M09 A3027 RMK AO1 SLP230
T00171094 10167 20000 51007





000
SAUS45 KLKN 290455
MTRP68
METAR KP68 290453Z AUTO 19003KT 02/M09 A3027 RMK AO1 SLP230
T00221089





000
SAUS45 KLKN 290355
MTRP68
METAR KP68 290353Z AUTO 17004KT 03/M09 A3026 RMK AO1 SLP235
T00281094





000
SAUS45 KLKN 290255
MTRP68
METAR KP68 290253Z AUTO 00000KT 04/M10 A3025 RMK AO1 SLP243
T00391100 51013





000
SAUS45 KLKN 290154
MTRP68
METAR KP68 290153Z AUTO 17005KT 07/M10 A3023 RMK AO1 SLP236
T00671100





000
SAUS45 KLKN 290154
MTRP68
METAR KP68 290153Z AUTO 17005KT 07/M10 A3023 RMK AO1 SLP236
T00671100





000
SAUS45 KLKN 290055
MTRP68
METAR KP68 290053Z AUTO 31007KT 10/M09 A3022 RMK AO1 SLP221
T01001094





000
SAUS45 KLKN 282354
MTRP68
METAR KP68 282353Z AUTO 05003KT 16/M08 A3020 RMK AO1 SLP205
T01611078 10178 20083 56002





000
SAUS45 KLKN 282257 COR
MTRP68
METAR KP68 282253Z AUTO 04005KT 17/M08 A3021 RMK AO1 SLP204
T01721083





000
SAUS45 KLKN 282256 COR
MTRP68
METAR KP68 282253Z AUTO 04005KT 17/M08 A3021 RMK AO1 SLP204
T01721083





000
SAUS45 KLKN 282255 COR
MTRP68
METAR KP68 282253Z AUTO 04005KT 17/M08 A3021 RMK AO1 SLP204
T01721083





000
SAUS45 KLKN 282154
MTRP68
METAR KP68 282153Z AUTO 02005KT 17/M08 A3020 RMK AO1 SLP198
T01721083





000
SAUS45 KLKN 282054
MTRP68
METAR KP68 282053Z AUTO VRB04KT 16/M09 A3021 RMK AO1 SLP205
T01611089 58015





000
SAUS45 KLKN 281954
MTRP68
METAR KP68 281953Z AUTO VRB03KT 14/M10 A3024 RMK AO1 SLP217
T01391100





000
SAUS45 KLKN 281858 COR
MTRP68
METAR KP68 281853Z AUTO 00000KT 13/M10 A3026 RMK AO1 SLP227
T01281100





000
SAUS45 KLKN 281755
MTRP68
METAR KP68 281753Z AUTO 00000KT 09/M11 A3026 RMK AO1 SLP232
T00891111 10089 21056 50004





000
SAUS45 KLKN 281655
MTRP68
METAR KP68 281653Z AUTO 04004KT 07/M12 A3026 RMK AO1 SLP231
T00721117





000
SAUS45 KLKN 281655
MTRP68
METAR KP68 281653Z AUTO 04004KT 07/M12 A3026 RMK AO1 SLP231
T00721117





000
SAUS45 KLKN 281554
MTRP68
METAR KP68 281553Z AUTO 00000KT 03/M12 A3026 RMK AO1 SLP238
T00331122





000
SAUS45 KLKN 281554
MTRP68
METAR KP68 281553Z AUTO 00000KT 03/M12 A3026 RMK AO1 SLP238
T00331122





000
SAUS45 KLKN 281454
MTRP68
METAR KP68 281453Z AUTO 21005KT M03/M12 A3025 RMK AO1 SLP241
T10281122 53014





000
SAUS45 KLKN 281354
MTRP68
METAR KP68 281353Z AUTO 21008KT M05/M13 A3022 RMK AO1 SLP238
T10501133





000
SAUS45 KLKN 281254
MTRP68
METAR KP68 281253Z AUTO 20005KT M04/M13 A3021 RMK AO1 SLP222
T10441133





000
SAUS45 KLKN 281155
MTRP68
METAR KP68 281153Z AUTO 17006KT M05/M13 A3020 RMK AO1 SLP213
T10501133 11017 21056 53004





000
SAUS45 KLKN 281055
MTRP68
METAR KP68 281053Z AUTO 19003KT M05/M13 A3019 RMK AO1 SLP210
T10501128





000
SAUS45 KLKN 280955
MTRP68
METAR KP68 280953Z AUTO 21006KT M03/M13 A3019 RMK AO1 SLP208
T10331128





000
SAUS45 KLKN 280955
MTRP68
METAR KP68 280953Z AUTO 21006KT M03/M13 A3019 RMK AO1 SLP208
T10331128





000
SAUS45 KLKN 280855
MTRP68
METAR KP68 280853Z AUTO 19004KT M04/M13 A3019 RMK AO1 SLP211
T10441133 53006





000
SAUS45 KLKN 280754
MTRP68
METAR KP68 280753Z AUTO 19006KT M03/M13 A3018 RMK AO1 SLP206
T10281133 401171067





    US Dept of Commerce
    National Oceanic and Atmospheric Administration
    National Weather Service
    1325 East West Highway
    Silver Spring, MD 20910
    Page Author: NWS Internet Services Team
Disclaimer
Information Quality
Credits
Glossary
Privacy Policy
Freedom of Information Act (FOIA)
About Us
Career Opportunities